sensor_id;sensor_type;location;lat;lon;timestamp;pressure;altitude;pressure_sealevel;temperature;humidity
50292;BME280;36190;54.980;73.388;2023-04-02T00:00:15;102450.75;;;-3.46;67.06
50292;BME280;36190;54.980;73.388;2023-04-02T00:02:46;102440.41;;;-3.50;66.82
50292;BME280;36190;54.980;73.388;2023-04-02T00:05:38;102448.19;;;-3.47;67.22
50292;BME280;36190;54.980;73.388;2023-04-02T00:08:25;102438.75;;;-3.56;67.07
50292;BME280;36190;54.980;73.388;2023-04-02T00:10:54;102434.38;;;-3.54;66.91
50292;BME280;36190;54.980;73.388;2023-04-02T00:13:30;102443.84;;;-3.48;66.91
50292;BME280;36190;54.980;73.388;2023-04-02T00:15:59;102449.13;;;-3.51;66.80
50292;BME280;36190;54.980;73.388;2023-04-02T00:18:28;102449.19;;;-3.54;66.96
50292;BME280;36190;54.980;73.388;2023-04-02T00:21:07;102438.78;;;-3.57;66.98
50292;BME280;36190;54.980;73.388;2023-04-02T00:23:38;102447.50;;;-3.59;67.03
50292;BME280;36190;54.980;73.388;2023-04-02T00:26:28;102433.69;;;-3.64;67.22
50292;BME280;36190;54.980;73.388;2023-04-02T00:28:58;102435.34;;;-3.60;66.95
50292;BME280;36190;54.980;73.388;2023-04-02T00:31:26;102432.78;;;-3.63;66.99
50292;BME280;36190;54.980;73.388;2023-04-02T00:33:54;102438.91;;;-3.64;67.08
50292;BME280;36190;54.980;73.388;2023-04-02T00:36:24;102437.16;;;-3.65;67.24
50292;BME280;36190;54.980;73.388;2023-04-02T00:38:56;102413.09;;;-3.82;67.10
50292;BME280;36190;54.980;73.388;2023-04-02T00:41:27;102440.63;;;-3.63;67.13
50292;BME280;36190;54.980;73.388;2023-04-02T00:43:58;102431.06;;;-3.64;67.08
50292;BME280;36190;54.980;73.388;2023-04-02T00:46:30;102433.72;;;-3.67;67.20
50292;BME280;36190;54.980;73.388;2023-04-02T00:49:04;102431.94;;;-3.65;67.17
50292;BME280;36190;54.980;73.388;2023-04-02T00:51:36;102432.81;;;-3.66;67.17
50292;BME280;36190;54.980;73.388;2023-04-02T00:54:09;102422.47;;;-3.72;67.28
50292;BME280;36190;54.980;73.388;2023-04-02T00:56:42;102414.72;;;-3.75;67.33
50292;BME280;36190;54.980;73.388;2023-04-02T00:59:19;102426.69;;;-3.62;67.42
50292;BME280;36190;54.980;73.388;2023-04-02T01:01:50;102429.25;;;-3.60;67.08
50292;BME280;36190;54.980;73.388;2023-04-02T01:04:30;102433.59;;;-3.59;67.26
50292;BME280;36190;54.980;73.388;2023-04-02T01:07:01;102434.44;;;-3.59;67.13
50292;BME280;36190;54.980;73.388;2023-04-02T01:09:50;102432.66;;;-3.56;67.32
50292;BME280;36190;54.980;73.388;2023-04-02T01:12:30;102433.56;;;-3.57;67.37
50292;BME280;36190;54.980;73.388;2023-04-02T01:15:07;102430.03;;;-3.53;67.02
50292;BME280;36190;54.980;73.388;2023-04-02T01:17:51;102437.81;;;-3.52;67.02
50292;BME280;36190;54.980;73.388;2023-04-02T01:20:52;102438.69;;;-3.53;67.13
50292;BME280;36190;54.980;73.388;2023-04-02T01:23:28;102432.66;;;-3.56;66.83
50292;BME280;36190;54.980;73.388;2023-04-02T01:26:05;102443.88;;;-3.50;66.90
50292;BME280;36190;54.980;73.388;2023-04-02T01:29:02;102442.00;;;-3.43;66.96
50292;BME280;36190;54.980;73.388;2023-04-02T01:31:32;102441.94;;;-3.40;66.57
50292;BME280;36190;54.980;73.388;2023-04-02T01:34:02;102430.78;;;-3.48;66.61
50292;BME280;36190;54.980;73.388;2023-04-02T01:36:36;102447.88;;;-3.30;66.66
50292;BME280;36190;54.980;73.388;2023-04-02T01:39:10;102437.34;;;-3.25;66.48
50292;BME280;36190;54.980;73.388;2023-04-02T01:41:46;102435.50;;;-3.19;66.32
50292;BME280;36190;54.980;73.388;2023-04-02T01:44:20;102416.34;;;-3.19;66.17
50292;BME280;36190;54.980;73.388;2023-04-02T01:46:51;102437.84;;;-3.05;65.90
50292;BME280;36190;54.980;73.388;2023-04-02T01:49:21;102435.13;;;-2.98;65.99
50292;BME280;36190;54.980;73.388;2023-04-02T01:51:51;102426.41;;;-2.99;65.76
50292;BME280;36190;54.980;73.388;2023-04-02T01:54:22;102430.56;;;-2.88;65.61
50292;BME280;36190;54.980;73.388;2023-04-02T01:56:50;102427.03;;;-2.86;65.34
50292;BME280;36190;54.980;73.388;2023-04-02T01:59:20;102433.88;;;-2.79;65.41
50292;BME280;36190;54.980;73.388;2023-04-02T02:01:53;102433.69;;;-2.69;65.38
50292;BME280;36190;54.980;73.388;2023-04-02T02:04:23;102435.34;;;-2.65;65.10
50292;BME280;36190;54.980;73.388;2023-04-02T02:06:51;102435.28;;;-2.62;64.98
50292;BME280;36190;54.980;73.388;2023-04-02T02:09:21;102426.53;;;-2.61;64.94
50292;BME280;36190;54.980;73.388;2023-04-02T02:11:50;102431.63;;;-2.55;64.83
50292;BME280;36190;54.980;73.388;2023-04-02T02:14:22;102404.03;;;-2.68;64.69
50292;BME280;36190;54.980;73.388;2023-04-02T02:16:50;102435.66;;;-2.40;64.52
50292;BME280;36190;54.980;73.388;2023-04-02T02:19:25;102419.25;;;-2.46;64.36
50292;BME280;36190;54.980;73.388;2023-04-02T02:21:55;102430.34;;;-2.35;64.16
50292;BME280;36190;54.980;73.388;2023-04-02T02:24:25;102431.09;;;-2.28;64.03
50292;BME280;36190;54.980;73.388;2023-04-02T02:27:12;102446.59;;;-2.21;63.83
50292;BME280;36190;54.980;73.388;2023-04-02T02:29:48;102435.00;;;-2.10;63.75
50292;BME280;36190;54.980;73.388;2023-04-02T02:32:19;102435.66;;;-2.00;63.47
50292;BME280;36190;54.980;73.388;2023-04-02T02:34:53;102436.47;;;-1.97;63.27
50292;BME280;36190;54.980;73.388;2023-04-02T02:37:22;102436.34;;;-1.92;63.27
50292;BME280;36190;54.980;73.388;2023-04-02T02:39:52;102437.34;;;-1.98;62.81
50292;BME280;36190;54.980;73.388;2023-04-02T02:42:25;102438.97;;;-1.92;62.89
50292;BME280;36190;54.980;73.388;2023-04-02T02:44:56;102435.34;;;-1.86;62.94
50292;BME280;36190;54.980;73.388;2023-04-02T02:47:27;102438.63;;;-1.78;62.72
50292;BME280;36190;54.980;73.388;2023-04-02T02:49:57;102432.38;;;-1.72;62.44
50292;BME280;36190;54.980;73.388;2023-04-02T02:52:28;102440.97;;;-1.66;62.29
50292;BME280;36190;54.980;73.388;2023-04-02T02:54:58;102432.97;;;-1.59;62.23
50292;BME280;36190;54.980;73.388;2023-04-02T02:57:29;102442.28;;;-1.49;61.98
50292;BME280;36190;54.980;73.388;2023-04-02T03:00:00;102423.09;;;-1.49;61.72
50292;BME280;36190;54.980;73.388;2023-04-02T03:02:34;102428.81;;;-1.33;61.28
50292;BME280;36190;54.980;73.388;2023-04-02T03:05:02;102438.38;;;-1.32;61.05
50292;BME280;36190;54.980;73.388;2023-04-02T03:07:30;102432.09;;;-1.25;60.64
50292;BME280;36190;54.980;73.388;2023-04-02T03:10:03;102424.16;;;-1.23;60.45
50292;BME280;36190;54.980;73.388;2023-04-02T03:12:39;102432.38;;;-1.04;60.03
50292;BME280;36190;54.980;73.388;2023-04-02T03:15:18;102432.25;;;-1.00;59.42
50292;BME280;36190;54.980;73.388;2023-04-02T03:17:50;102430.22;;;-0.88;59.46
50292;BME280;36190;54.980;73.388;2023-04-02T03:20:23;102407.66;;;-0.94;59.28
50292;BME280;36190;54.980;73.388;2023-04-02T03:22:56;102423.56;;;-0.70;58.96
50292;BME280;36190;54.980;73.388;2023-04-02T03:25:30;102423.25;;;-0.59;58.31
50292;BME280;36190;54.980;73.388;2023-04-02T03:28:02;102402.53;;;-0.67;58.09
50292;BME280;36190;54.980;73.388;2023-04-02T03:30:37;102412.69;;;-0.56;57.59
50292;BME280;36190;54.980;73.388;2023-04-02T03:33:12;102416.13;;;-0.54;57.39
50292;BME280;36190;54.980;73.388;2023-04-02T03:35:43;102411.00;;;-0.59;57.56
50292;BME280;36190;54.980;73.388;2023-04-02T03:38:15;102415.31;;;-0.56;57.41
50292;BME280;36190;54.980;73.388;2023-04-02T03:40:56;102426.56;;;-0.52;57.30
50292;BME280;36190;54.980;73.388;2023-04-02T03:43:25;102416.59;;;-0.41;57.14
50292;BME280;36190;54.980;73.388;2023-04-02T03:45:59;102418.94;;;-0.32;56.55
50292;BME280;36190;54.980;73.388;2023-04-02T03:48:36;102394.09;;;-0.48;56.47
50292;BME280;36190;54.980;73.388;2023-04-02T03:51:06;102424.91;;;-0.26;56.57
50292;BME280;36190;54.980;73.388;2023-04-02T03:53:38;102418.47;;;-0.16;56.37
50292;BME280;36190;54.980;73.388;2023-04-02T03:56:06;102415.66;;;-0.10;56.06
50292;BME280;36190;54.980;73.388;2023-04-02T03:58:40;102416.28;;;-0.02;55.88
50292;BME280;36190;54.980;73.388;2023-04-02T04:01:17;102418.59;;;0.08;55.70
50292;BME280;36190;54.980;73.388;2023-04-02T04:03:49;102410.47;;;0.16;55.51
50292;BME280;36190;54.980;73.388;2023-04-02T04:06:22;102422.44;;;0.24;55.40
50292;BME280;36190;54.980;73.388;2023-04-02T04:08:55;102419.78;;;0.26;55.19
50292;BME280;36190;54.980;73.388;2023-04-02T04:11:27;102404.22;;;0.20;55.14
50292;BME280;36190;54.980;73.388;2023-04-02T04:14:00;102423.81;;;0.36;54.77
50292;BME280;36190;54.980;73.388;2023-04-02T04:16:33;102425.34;;;0.42;54.63
50292;BME280;36190;54.980;73.388;2023-04-02T04:19:13;102420.03;;;0.45;54.17
50292;BME280;36190;54.980;73.388;2023-04-02T04:21:42;102415.75;;;0.41;54.32
50292;BME280;36190;54.980;73.388;2023-04-02T04:24:16;102408.81;;;0.40;54.02
50292;BME280;36190;54.980;73.388;2023-04-02T04:26:51;102390.81;;;0.27;53.98
50292;BME280;36190;54.980;73.388;2023-04-02T04:29:30;102414.59;;;0.50;54.01
50292;BME280;36190;54.980;73.388;2023-04-02T04:32:15;102409.06;;;0.58;53.51
50292;BME280;36190;54.980;73.388;2023-04-02T04:34:47;102422.00;;;0.64;53.72
50292;BME280;36190;54.980;73.388;2023-04-02T04:37:19;102418.25;;;0.71;53.66
50292;BME280;36190;54.980;73.388;2023-04-02T04:39:54;102419.81;;;0.77;53.39
50292;BME280;36190;54.980;73.388;2023-04-02T04:42:25;102407.63;;;0.74;53.38
50292;BME280;36190;54.980;73.388;2023-04-02T04:44:57;102409.72;;;0.90;53.15
50292;BME280;36190;54.980;73.388;2023-04-02T04:47:29;102423.78;;;0.89;52.59
50292;BME280;36190;54.980;73.388;2023-04-02T04:50:02;102421.97;;;0.89;52.70
50292;BME280;36190;54.980;73.388;2023-04-02T04:52:34;102413.03;;;0.95;52.84
50292;BME280;36190;54.980;73.388;2023-04-02T04:55:27;102411.09;;;1.00;52.27
50292;BME280;36190;54.980;73.388;2023-04-02T04:57:59;102399.06;;;0.93;52.49
50292;BME280;36190;54.980;73.388;2023-04-02T05:00:31;102410.53;;;1.16;52.66
50292;BME280;36190;54.980;73.388;2023-04-02T05:03:07;102403.34;;;1.21;52.19
50292;BME280;36190;54.980;73.388;2023-04-02T05:05:41;102407.50;;;1.27;52.14
50292;BME280;36190;54.980;73.388;2023-04-02T05:08:14;102413.38;;;1.33;51.75
50292;BME280;36190;54.980;73.388;2023-04-02T05:10:46;102407.19;;;1.34;51.87
50292;BME280;36190;54.980;73.388;2023-04-02T05:13:19;102413.63;;;1.27;51.75
50292;BME280;36190;54.980;73.388;2023-04-02T05:15:53;102409.16;;;1.29;51.73
50292;BME280;36190;54.980;73.388;2023-04-02T05:18:27;102426.25;;;1.41;51.77
50292;BME280;36190;54.980;73.388;2023-04-02T05:21:00;102409.59;;;1.41;51.55
50292;BME280;36190;54.980;73.388;2023-04-02T05:23:34;102414.63;;;1.47;51.41
50292;BME280;36190;54.980;73.388;2023-04-02T05:26:07;102416.00;;;1.57;51.50
50292;BME280;36190;54.980;73.388;2023-04-02T05:28:39;102414.97;;;1.61;51.13
50292;BME280;36190;54.980;73.388;2023-04-02T05:31:09;102423.69;;;1.62;50.98
50292;BME280;36190;54.980;73.388;2023-04-02T05:33:44;102429.47;;;1.72;50.51
50292;BME280;36190;54.980;73.388;2023-04-02T05:36:19;102404.13;;;1.69;50.60
50292;BME280;36190;54.980;73.388;2023-04-02T05:38:47;102425.44;;;1.85;50.86
50292;BME280;36190;54.980;73.388;2023-04-02T05:41:23;102428.63;;;1.94;50.72
50292;BME280;36190;54.980;73.388;2023-04-02T05:43:59;102437.28;;;1.97;50.67
50292;BME280;36190;54.980;73.388;2023-04-02T05:46:32;102429.19;;;2.02;50.50
50292;BME280;36190;54.980;73.388;2023-04-02T05:49:04;102431.91;;;1.99;50.55
50292;BME280;36190;54.980;73.388;2023-04-02T05:51:38;102435.47;;;1.98;50.15
50292;BME280;36190;54.980;73.388;2023-04-02T05:54:17;102450.06;;;2.06;50.06
50292;BME280;36190;54.980;73.388;2023-04-02T05:56:50;102424.03;;;1.99;49.99
50292;BME280;36190;54.980;73.388;2023-04-02T05:59:23;102430.84;;;2.04;50.04
50292;BME280;36190;54.980;73.388;2023-04-02T06:01:55;102436.94;;;2.05;49.83
50292;BME280;36190;54.980;73.388;2023-04-02T06:04:33;102432.75;;;2.01;49.94
50292;BME280;36190;54.980;73.388;2023-04-02T06:07:05;102436.22;;;2.01;50.12
50292;BME280;36190;54.980;73.388;2023-04-02T06:09:39;102433.16;;;2.12;49.91
50292;BME280;36190;54.980;73.388;2023-04-02T06:12:23;102425.06;;;2.17;49.85
50292;BME280;36190;54.980;73.388;2023-04-02T06:14:53;102438.63;;;2.28;50.00
50292;BME280;36190;54.980;73.388;2023-04-02T06:17:21;102435.09;;;2.29;49.85
50292;BME280;36190;54.980;73.388;2023-04-02T06:19:52;102439.38;;;2.32;49.51
50292;BME280;36190;54.980;73.388;2023-04-02T06:22:25;102426.19;;;2.32;49.58
50292;BME280;36190;54.980;73.388;2023-04-02T06:25:00;102427.75;;;2.38;49.76
50292;BME280;36190;54.980;73.388;2023-04-02T06:27:29;102432.00;;;2.40;49.81
50292;BME280;36190;54.980;73.388;2023-04-02T06:30:01;102430.91;;;2.46;49.38
50292;BME280;36190;54.980;73.388;2023-04-02T06:32:29;102423.84;;;2.46;49.44
50292;BME280;36190;54.980;73.388;2023-04-02T06:34:58;102437.22;;;2.42;48.96
50292;BME280;36190;54.980;73.388;2023-04-02T06:37:30;102419.22;;;2.31;48.63
50292;BME280;36190;54.980;73.388;2023-04-02T06:39:58;102433.44;;;2.47;48.69
50292;BME280;36190;54.980;73.388;2023-04-02T06:42:29;102419.25;;;2.52;48.44
50292;BME280;36190;54.980;73.388;2023-04-02T06:44:59;102431.75;;;2.67;48.34
50292;BME280;36190;54.980;73.388;2023-04-02T06:47:30;102432.28;;;2.75;48.37
50292;BME280;36190;54.980;73.388;2023-04-02T06:50:05;102425.84;;;2.83;48.29
50292;BME280;36190;54.980;73.388;2023-04-02T06:52:38;102416.47;;;2.75;48.27
50292;BME280;36190;54.980;73.388;2023-04-02T06:55:28;102426.63;;;2.85;48.58
50292;BME280;36190;54.980;73.388;2023-04-02T06:57:56;102420.41;;;2.86;48.61
50292;BME280;36190;54.980;73.388;2023-04-02T07:00:27;102414.41;;;2.82;48.39
50292;BME280;36190;54.980;73.388;2023-04-02T07:03:00;102415.06;;;2.87;48.52
50292;BME280;36190;54.980;73.388;2023-04-02T07:05:33;102420.06;;;2.94;48.58
50292;BME280;36190;54.980;73.388;2023-04-02T07:08:00;102424.13;;;3.01;48.25
50292;BME280;36190;54.980;73.388;2023-04-02T07:10:28;102424.94;;;3.03;48.38
50292;BME280;36190;54.980;73.388;2023-04-02T07:12:55;102419.72;;;3.01;48.45
50292;BME280;36190;54.980;73.388;2023-04-02T07:15:23;102413.38;;;3.06;48.63
50292;BME280;36190;54.980;73.388;2023-04-02T07:17:50;102415.81;;;3.10;48.82
50292;BME280;36190;54.980;73.388;2023-04-02T07:20:25;102403.06;;;3.20;48.74
50292;BME280;36190;54.980;73.388;2023-04-02T07:22:55;102395.22;;;3.38;48.39
50292;BME280;36190;54.980;73.388;2023-04-02T07:25:23;102404.13;;;3.54;48.23
50292;BME280;36190;54.980;73.388;2023-04-02T07:27:52;102396.47;;;3.67;47.92
50292;BME280;36190;54.980;73.388;2023-04-02T07:30:19;102395.97;;;3.78;47.59
50292;BME280;36190;54.980;73.388;2023-04-02T07:32:47;102399.53;;;3.77;47.32
50292;BME280;36190;54.980;73.388;2023-04-02T07:35:15;102394.25;;;3.77;47.21
50292;BME280;36190;54.980;73.388;2023-04-02T07:37:42;102386.50;;;3.74;46.92
50292;BME280;36190;54.980;73.388;2023-04-02T07:40:16;102388.97;;;3.77;46.93
50292;BME280;36190;54.980;73.388;2023-04-02T07:42:45;102391.69;;;3.76;46.74
50292;BME280;36190;54.980;73.388;2023-04-02T07:45:12;102383.69;;;3.77;46.76
50292;BME280;36190;54.980;73.388;2023-04-02T07:47:40;102387.28;;;3.94;46.61
50292;BME280;36190;54.980;73.388;2023-04-02T07:50:09;102385.78;;;4.07;46.14
50292;BME280;36190;54.980;73.388;2023-04-02T07:52:38;102383.72;;;4.12;45.69
50292;BME280;36190;54.980;73.388;2023-04-02T07:55:08;102394.00;;;4.19;45.29
50292;BME280;36190;54.980;73.388;2023-04-02T07:57:39;102392.47;;;4.32;44.67
50292;BME280;36190;54.980;73.388;2023-04-02T08:00:09;102393.63;;;4.44;44.51
50292;BME280;36190;54.980;73.388;2023-04-02T08:02:38;102396.19;;;4.46;44.44
50292;BME280;36190;54.980;73.388;2023-04-02T08:05:06;102386.47;;;4.46;44.46
50292;BME280;36190;54.980;73.388;2023-04-02T08:07:34;102388.25;;;4.63;43.85
50292;BME280;36190;54.980;73.388;2023-04-02T08:10:02;102384.19;;;4.74;43.72
50292;BME280;36190;54.980;73.388;2023-04-02T08:12:30;102385.81;;;4.76;43.29
50292;BME280;36190;54.980;73.388;2023-04-02T08:14:59;102384.47;;;4.85;42.96
50292;BME280;36190;54.980;73.388;2023-04-02T08:17:26;102392.28;;;5.04;42.84
50292;BME280;36190;54.980;73.388;2023-04-02T08:19:56;102369.06;;;5.26;42.69
50292;BME280;36190;54.980;73.388;2023-04-02T08:22:25;102365.84;;;5.53;42.35
50292;BME280;36190;54.980;73.388;2023-04-02T08:24:53;102365.03;;;5.83;41.82
50292;BME280;36190;54.980;73.388;2023-04-02T08:27:22;102361.31;;;6.01;41.78
50292;BME280;36190;54.980;73.388;2023-04-02T08:29:49;102368.31;;;6.18;41.12
50292;BME280;36190;54.980;73.388;2023-04-02T08:32:18;102376.69;;;6.41;40.91
50292;BME280;36190;54.980;73.388;2023-04-02T08:34:46;102366.47;;;6.50;40.41
50292;BME280;36190;54.980;73.388;2023-04-02T08:37:14;102367.88;;;6.41;40.00
50292;BME280;36190;54.980;73.388;2023-04-02T08:39:42;102363.63;;;6.38;39.87
50292;BME280;36190;54.980;73.388;2023-04-02T08:42:19;102364.31;;;6.42;39.53
50292;BME280;36190;54.980;73.388;2023-04-02T08:44:55;102341.75;;;6.49;39.38
50292;BME280;36190;54.980;73.388;2023-04-02T08:47:34;102356.06;;;6.76;39.09
50292;BME280;36190;54.980;73.388;2023-04-02T08:50:14;102362.63;;;6.99;38.65
50292;BME280;36190;54.980;73.388;2023-04-02T08:52:45;102345.53;;;7.18;38.48
50292;BME280;36190;54.980;73.388;2023-04-02T08:55:18;102363.31;;;7.30;37.78
50292;BME280;36190;54.980;73.388;2023-04-02T08:57:56;102357.63;;;7.22;37.32
50292;BME280;36190;54.980;73.388;2023-04-02T09:00:31;102352.38;;;7.07;37.19
50292;BME280;36190;54.980;73.388;2023-04-02T09:03:07;102344.41;;;7.07;37.02
50292;BME280;36190;54.980;73.388;2023-04-02T09:05:38;102327.63;;;6.92;37.23
50292;BME280;36190;54.980;73.388;2023-04-02T09:08:16;102354.03;;;7.23;37.18
50292;BME280;36190;54.980;73.388;2023-04-02T09:11:03;102347.72;;;7.38;36.91
50292;BME280;36190;54.980;73.388;2023-04-02T09:13:33;102345.13;;;7.51;37.01
50292;BME280;36190;54.980;73.388;2023-04-02T09:16:07;102351.56;;;7.89;36.38
50292;BME280;36190;54.980;73.388;2023-04-02T09:18:38;102353.72;;;8.10;36.28
50292;BME280;36190;54.980;73.388;2023-04-02T09:21:18;102353.41;;;8.28;35.99
50292;BME280;36190;54.980;73.388;2023-04-02T09:23:53;102342.47;;;8.45;36.01
50292;BME280;36190;54.980;73.388;2023-04-02T09:26:23;102339.72;;;8.60;35.67
50292;BME280;36190;54.980;73.388;2023-04-02T09:28:58;102348.03;;;8.68;35.31
50292;BME280;36190;54.980;73.388;2023-04-02T09:31:30;102323.44;;;8.77;35.30
50292;BME280;36190;54.980;73.388;2023-04-02T09:34:28;102333.00;;;8.80;35.56
50292;BME280;36190;54.980;73.388;2023-04-02T09:36:56;102326.53;;;8.71;35.79
50292;BME280;36190;54.980;73.388;2023-04-02T09:39:32;102322.91;;;8.72;36.13
50292;BME280;36190;54.980;73.388;2023-04-02T09:42:05;102328.56;;;8.80;35.94
50292;BME280;36190;54.980;73.388;2023-04-02T09:44:33;102322.25;;;8.82;36.04
50292;BME280;36190;54.980;73.388;2023-04-02T09:47:03;102304.59;;;8.80;36.05
50292;BME280;36190;54.980;73.388;2023-04-02T09:49:34;102310.28;;;9.00;36.08
50292;BME280;36190;54.980;73.388;2023-04-02T09:52:18;102320.06;;;9.13;35.79
50292;BME280;36190;54.980;73.388;2023-04-02T09:54:47;102326.06;;;9.03;35.86
50292;BME280;36190;54.980;73.388;2023-04-02T09:57:31;102314.94;;;9.10;35.96
50292;BME280;36190;54.980;73.388;2023-04-02T10:00:10;102318.81;;;9.30;35.54
50292;BME280;36190;54.980;73.388;2023-04-02T10:02:42;102326.19;;;9.26;35.79
50292;BME280;36190;54.980;73.388;2023-04-02T10:05:18;102320.22;;;9.22;35.72
50292;BME280;36190;54.980;73.388;2023-04-02T10:07:48;102307.44;;;9.28;35.77
50292;BME280;36190;54.980;73.388;2023-04-02T10:10:20;102322.53;;;9.40;35.66
50292;BME280;36190;54.980;73.388;2023-04-02T10:12:51;102306.66;;;9.39;35.33
50292;BME280;36190;54.980;73.388;2023-04-02T10:15:27;102315.94;;;9.57;35.36
50292;BME280;36190;54.980;73.388;2023-04-02T10:18:03;102318.22;;;9.51;35.13
50292;BME280;36190;54.980;73.388;2023-04-02T10:20:36;102297.84;;;9.25;35.39
50292;BME280;36190;54.980;73.388;2023-04-02T10:23:13;102289.19;;;9.10;35.66
50292;BME280;36190;54.980;73.388;2023-04-02T10:25:45;102323.13;;;9.44;35.71
50292;BME280;36190;54.980;73.388;2023-04-02T10:28:22;102315.53;;;9.75;35.34
50292;BME280;36190;54.980;73.388;2023-04-02T10:31:01;102318.19;;;10.11;35.36
50292;BME280;36190;54.980;73.388;2023-04-02T10:33:35;102323.16;;;10.15;35.50
50292;BME280;36190;54.980;73.388;2023-04-02T10:36:08;102313.19;;;10.06;35.51
50292;BME280;36190;54.980;73.388;2023-04-02T10:38:44;102318.50;;;9.95;36.08
50292;BME280;36190;54.980;73.388;2023-04-02T10:41:24;102317.44;;;9.97;36.07
50292;BME280;36190;54.980;73.388;2023-04-02T10:44:04;102308.22;;;10.13;35.86
50292;BME280;36190;54.980;73.388;2023-04-02T10:46:38;102308.63;;;10.31;36.10
50292;BME280;36190;54.980;73.388;2023-04-02T10:49:18;102310.88;;;10.60;35.88
50292;BME280;36190;54.980;73.388;2023-04-02T10:51:54;102302.13;;;10.81;35.46
50292;BME280;36190;54.980;73.388;2023-04-02T10:54:33;102305.00;;;11.12;35.56
50292;BME280;36190;54.980;73.388;2023-04-02T10:57:07;102293.09;;;11.16;35.19
50292;BME280;36190;54.980;73.388;2023-04-02T10:59:38;102289.53;;;11.27;35.21
50292;BME280;36190;54.980;73.388;2023-04-02T11:02:26;102284.06;;;11.28;35.03
50292;BME280;36190;54.980;73.388;2023-04-02T11:04:58;102286.47;;;11.32;35.01
50292;BME280;36190;54.980;73.388;2023-04-02T11:07:41;102285.16;;;11.37;34.89
50292;BME280;36190;54.980;73.388;2023-04-02T11:10:14;102296.22;;;11.33;34.79
50292;BME280;36190;54.980;73.388;2023-04-02T11:12:50;102303.00;;;11.37;34.94
50292;BME280;36190;54.980;73.388;2023-04-02T11:15:19;102294.22;;;11.67;35.07
50292;BME280;36190;54.980;73.388;2023-04-02T11:17:47;102300.66;;;11.97;34.78
50292;BME280;36190;54.980;73.388;2023-04-02T11:23:34;102289.50;;;12.14;34.80
50292;BME280;36190;54.980;73.388;2023-04-02T11:29:25;102291.47;;;12.12;34.39
50292;BME280;36190;54.980;73.388;2023-04-02T11:32:21;102296.97;;;12.10;34.24
50292;BME280;36190;54.980;73.388;2023-04-02T11:44:25;102287.41;;;13.50;33.44
50292;BME280;36190;54.980;73.388;2023-04-02T11:47:19;102296.13;;;13.92;32.83
50292;BME280;36190;54.980;73.388;2023-04-02T11:50:01;102297.66;;;14.14;32.66
50292;BME280;36190;54.980;73.388;2023-04-02T11:52:35;102290.28;;;14.16;32.62
50292;BME280;36190;54.980;73.388;2023-04-02T11:55:27;102292.66;;;14.29;32.46
50292;BME280;36190;54.980;73.388;2023-04-02T12:01:44;102277.63;;;14.46;32.63
50292;BME280;36190;54.980;73.388;2023-04-02T12:04:36;102284.28;;;14.70;32.25
50292;BME280;36190;54.980;73.388;2023-04-02T12:07:36;102279.50;;;14.64;31.94
50292;BME280;36190;54.980;73.388;2023-04-02T12:10:18;102283.78;;;14.56;32.27
50292;BME280;36190;54.980;73.388;2023-04-02T12:12:47;102289.94;;;14.67;32.45
50292;BME280;36190;54.980;73.388;2023-04-02T12:15:39;102291.59;;;14.88;31.62
50292;BME280;36190;54.980;73.388;2023-04-02T12:18:15;102269.19;;;14.69;31.86
50292;BME280;36190;54.980;73.388;2023-04-02T12:20:48;102279.09;;;14.30;32.01
50292;BME280;36190;54.980;73.388;2023-04-02T12:23:21;102278.00;;;14.13;32.49
50292;BME280;36190;54.980;73.388;2023-04-02T12:25:55;102270.88;;;13.94;32.43
50292;BME280;36190;54.980;73.388;2023-04-02T12:28:24;102268.88;;;13.77;32.93
50292;BME280;36190;54.980;73.388;2023-04-02T12:31:03;102267.06;;;13.87;32.79
50292;BME280;36190;54.980;73.388;2023-04-02T12:33:36;102260.69;;;13.88;32.84
50292;BME280;36190;54.980;73.388;2023-04-02T12:36:05;102267.75;;;13.99;32.83
50292;BME280;36190;54.980;73.388;2023-04-02T12:38:41;102268.41;;;14.11;32.44
50292;BME280;36190;54.980;73.388;2023-04-02T12:41:20;102262.72;;;14.24;32.14
50292;BME280;36190;54.980;73.388;2023-04-02T12:43:56;102257.38;;;14.14;32.28
50292;BME280;36190;54.980;73.388;2023-04-02T12:46:24;102257.69;;;14.01;32.61
50292;BME280;36190;54.980;73.388;2023-04-02T12:48:57;102246.16;;;13.81;32.64
50292;BME280;36190;54.980;73.388;2023-04-02T12:51:26;102253.66;;;13.67;32.96
50292;BME280;36190;54.980;73.388;2023-04-02T12:53:54;102253.38;;;13.31;33.32
50292;BME280;36190;54.980;73.388;2023-04-02T12:56:22;102241.16;;;12.05;34.54
50292;BME280;36190;54.980;73.388;2023-04-02T12:58:55;102249.63;;;10.47;36.39
50292;BME280;36190;54.980;73.388;2023-04-02T13:01:23;102238.25;;;9.15;38.39
50292;BME280;36190;54.980;73.388;2023-04-02T13:04:01;102238.88;;;8.31;39.65
50292;BME280;36190;54.980;73.388;2023-04-02T13:06:29;102240.81;;;7.62;40.95
50292;BME280;36190;54.980;73.388;2023-04-02T13:08:57;102231.41;;;7.03;42.19
50292;BME280;36190;54.980;73.388;2023-04-02T13:11:33;102232.47;;;6.58;43.22
50292;BME280;36190;54.980;73.388;2023-04-02T13:14:02;102221.09;;;6.13;43.64
50292;BME280;36190;54.980;73.388;2023-04-02T13:16:35;102227.56;;;5.92;44.62
50292;BME280;36190;54.980;73.388;2023-04-02T13:19:22;102218.53;;;5.66;45.20
50292;BME280;36190;54.980;73.388;2023-04-02T13:21:50;102219.94;;;5.57;45.13
50292;BME280;36190;54.980;73.388;2023-04-02T13:24:19;102223.03;;;5.49;45.63
50292;BME280;36190;54.980;73.388;2023-04-02T13:26:48;102221.88;;;5.39;45.92
50292;BME280;36190;54.980;73.388;2023-04-02T13:29:19;102200.41;;;5.13;46.59
50292;BME280;36190;54.980;73.388;2023-04-02T13:31:47;102220.03;;;5.09;46.79
50292;BME280;36190;54.980;73.388;2023-04-02T13:34:16;102216.97;;;5.01;47.26
50292;BME280;36190;54.980;73.388;2023-04-02T13:36:44;102214.09;;;4.89;47.43